createdAt,value
2018-11-06T00:00:50.160Z,99.99
2018-11-06T00:01:50.089Z,99.99
2018-11-06T00:02:50.063Z,99.99
2018-11-06T00:03:50.034Z,99.99
2018-11-06T00:04:50.002Z,99.99
2018-11-06T00:05:50.043Z,99.99
2018-11-06T00:06:50.803Z,99.99
2018-11-06T00:07:49.912Z,99.99
2018-11-06T00:08:50.804Z,99.99
2018-11-06T00:09:49.849Z,99.99
2018-11-06T00:10:50.348Z,99.99
2018-11-06T00:11:50.291Z,99.99
2018-11-06T00:12:50.293Z,99.99
2018-11-06T00:13:49.733Z,99.99
2018-11-06T00:14:49.701Z,99.99
2018-11-06T00:15:49.856Z,99.99
2018-11-06T00:16:50.292Z,99.99
2018-11-06T00:17:50.289Z,99.99
2018-11-06T00:18:50.293Z,99.99
2018-11-06T00:19:50.310Z,99.99
2018-11-06T00:20:49.574Z,99.99
2018-11-06T00:21:50.300Z,99.99
2018-11-06T00:22:49.485Z,99.99
2018-11-06T00:23:50.294Z,99.99
2018-11-06T00:24:50.303Z,99.99
2018-11-06T00:25:49.419Z,99.99
2018-11-06T00:26:49.854Z,99.99
2018-11-06T00:27:49.363Z,99.99
2018-11-06T00:28:49.796Z,99.99
2018-11-06T00:29:49.794Z,99.99
2018-11-06T00:30:49.817Z,99.99
2018-11-06T00:31:49.805Z,99.99
2018-11-06T00:32:49.351Z,99.99
2018-11-06T00:33:49.153Z,99.99
2018-11-06T00:34:49.795Z,99.99
2018-11-06T00:35:49.795Z,99.99
2018-11-06T00:36:49.817Z,99.99
2018-11-06T00:37:49.352Z,99.99
2018-11-06T00:38:48.999Z,99.99
2018-11-06T00:39:49.805Z,99.99
2018-11-06T00:40:49.800Z,99.99
2018-11-06T00:41:48.945Z,99.99
2018-11-06T00:42:49.373Z,99.99
2018-11-06T00:43:49.816Z,99.99
2018-11-06T00:44:49.796Z,99.99
2018-11-06T00:45:49.297Z,99.99
2018-11-06T00:46:49.296Z,99.99
2018-11-06T00:47:48.852Z,99.99
2018-11-06T00:48:48.702Z,99.99
2018-11-06T00:49:49.301Z,99.99
2018-11-06T00:50:49.296Z,99.99
2018-11-06T00:51:50.202Z,99.99
2018-11-06T00:52:48.628Z,99.99
2018-11-06T00:53:48.853Z,99.99
2018-11-06T00:54:49.306Z,99.99
2018-11-06T00:55:49.300Z,99.99
2018-11-06T00:56:49.301Z,99.99
2018-11-06T00:57:48.490Z,99.99
2018-11-06T00:58:49.298Z,99.99
2018-11-06T00:59:49.723Z,99.99
2018-11-06T01:00:49.297Z,99.99
2018-11-06T01:01:49.301Z,99.99
2018-11-06T01:02:48.338Z,99.99
2018-11-06T01:03:48.798Z,99.99
2018-11-06T01:04:48.801Z,99.99
2018-11-06T01:05:48.801Z,99.99
2018-11-06T01:06:48.812Z,99.99
2018-11-06T01:07:48.366Z,99.99
2018-11-06T01:08:48.803Z,99.99
2018-11-06T01:09:48.801Z,99.99
2018-11-06T01:10:48.053Z,99.99
2018-11-06T01:11:48.800Z,99.99
2018-11-06T01:12:48.369Z,99.99
2018-11-06T01:13:48.805Z,99.99
2018-11-06T01:14:48.800Z,99.99
2018-11-06T01:15:47.914Z,99.99
2018-11-06T01:16:48.835Z,99.99
2018-11-06T01:17:48.373Z,99.99
2018-11-06T01:18:47.823Z,99.99
2018-11-06T01:19:48.303Z,99.99
2018-11-06T01:20:48.300Z,99.99
2018-11-06T01:21:48.359Z,99.99
2018-11-06T01:22:47.866Z,99.99
2018-11-06T01:23:48.304Z,99.99
2018-11-06T01:24:50.302Z,99.99
2018-11-06T01:25:48.302Z,99.99
2018-11-06T01:26:47.587Z,99.99
2018-11-06T01:27:47.600Z,99.99
2018-11-06T01:28:47.862Z,99.99
2018-11-06T01:29:48.309Z,99.99
2018-11-06T01:30:47.865Z,99.99
2018-11-06T01:31:47.440Z,99.99
2018-11-06T01:32:48.304Z,99.99
2018-11-06T01:33:48.301Z,99.99
2018-11-06T01:34:47.354Z,99.99
2018-11-06T01:35:47.432Z,99.99
2018-11-06T01:36:47.837Z,99.99
2018-11-06T01:37:47.269Z,99.99
2018-11-06T01:38:50.262Z,99.99
2018-11-06T01:39:47.806Z,99.99
2018-11-06T01:40:47.375Z,99.99
2018-11-06T01:41:47.808Z,99.99
2018-11-06T01:42:47.145Z,99.99
2018-11-06T01:43:47.814Z,99.99
2018-11-06T01:44:47.815Z,99.99
2018-11-06T01:45:47.368Z,99.99
2018-11-06T01:46:47.806Z,99.99
2018-11-06T01:47:47.807Z,99.99
2018-11-06T01:48:47.886Z,99.99
2018-11-06T01:49:47.807Z,99.99
2018-11-06T01:50:46.934Z,99.99
2018-11-06T01:51:47.836Z,99.99
2018-11-06T01:52:47.810Z,99.99
2018-11-06T01:53:46.790Z,99.99
2018-11-06T01:54:46.767Z,99.99
2018-11-06T01:55:46.863Z,99.99
2018-11-06T01:56:47.311Z,99.99
2018-11-06T01:57:47.308Z,99.99
2018-11-06T01:58:47.307Z,99.99
2018-11-06T01:59:46.615Z,99.99
2018-11-06T02:00:46.870Z,99.99
2018-11-06T02:01:46.563Z,99.99
2018-11-06T02:02:47.314Z,99.99
2018-11-06T02:03:47.311Z,99.99
2018-11-06T02:04:47.308Z,99.99
2018-11-06T02:05:46.501Z,99.99
2018-11-06T02:06:47.309Z,99.99
2018-11-06T02:07:47.316Z,99.99
2018-11-06T02:08:47.308Z,99.99
2018-11-06T02:09:46.322Z,99.99
2018-11-06T02:10:46.868Z,99.99
2018-11-06T02:11:46.266Z,99.99
2018-11-06T02:12:46.249Z,99.99
2018-11-06T02:13:46.808Z,99.99
2018-11-06T02:14:46.814Z,99.99
2018-11-06T02:15:46.207Z,99.99
2018-11-06T02:16:46.814Z,99.99
2018-11-06T02:17:46.079Z,99.99
2018-11-06T02:18:46.813Z,99.99
2018-11-06T02:19:46.813Z,99.99
2018-11-06T02:20:46.362Z,99.99
2018-11-06T02:21:46.820Z,99.99
2018-11-06T02:22:45.952Z,99.99
2018-11-06T02:23:46.848Z,99.99
2018-11-06T02:24:46.813Z,99.99
2018-11-06T02:25:45.930Z,99.99
2018-11-06T02:26:46.812Z,99.99
2018-11-06T02:27:45.837Z,99.99
2018-11-06T02:28:46.313Z,99.99
2018-11-06T02:29:45.730Z,99.99
2018-11-06T02:30:45.699Z,99.99
2018-11-06T02:31:46.316Z,99.99
2018-11-06T02:32:45.865Z,99.99
2018-11-06T02:33:46.316Z,99.99
2018-11-06T02:34:46.457Z,99.99
2018-11-06T02:35:46.315Z,99.99
2018-11-06T02:36:46.313Z,99.99
2018-11-06T02:37:45.875Z,99.99
2018-11-06T02:38:46.321Z,99.99
2018-11-06T02:39:46.323Z,99.99
2018-11-06T02:40:46.318Z,99.99
2018-11-06T02:41:45.373Z,99.99
2018-11-06T02:42:45.876Z,99.99
2018-11-06T02:43:45.816Z,99.99
2018-11-06T02:44:45.816Z,99.99
2018-11-06T02:45:45.815Z,99.99
2018-11-06T02:46:45.817Z,99.99
2018-11-06T02:47:45.382Z,99.99
2018-11-06T02:48:45.163Z,99.99
2018-11-06T02:49:45.134Z,99.99
2018-11-06T02:50:45.823Z,99.99
2018-11-06T02:51:45.820Z,99.99
2018-11-06T02:52:45.390Z,99.99
2018-11-06T02:53:45.008Z,99.99
2018-11-06T02:54:45.825Z,99.99
2018-11-06T02:55:45.845Z,99.99
2018-11-06T02:56:45.820Z,99.99
2018-11-06T02:57:45.376Z,99.99
2018-11-06T02:58:45.824Z,99.99
2018-11-06T02:59:45.820Z,99.99
2018-11-06T03:00:45.348Z,99.99
2018-11-06T03:01:45.320Z,99.99
2018-11-06T03:02:44.791Z,99.99
2018-11-06T03:03:44.753Z,99.99
2018-11-06T03:04:45.322Z,99.99
2018-11-06T03:05:45.319Z,99.99
2018-11-06T03:06:45.318Z,99.99
2018-11-06T03:07:45.325Z,99.99
2018-11-06T03:08:44.880Z,99.99
2018-11-06T03:09:44.525Z,99.99
2018-11-06T03:10:44.494Z,99.99
2018-11-06T03:11:44.464Z,99.99
2018-11-06T03:12:44.469Z,99.99
2018-11-06T03:13:44.452Z,99.99
2018-11-06T03:14:45.325Z,99.99
2018-11-06T03:15:45.323Z,99.99
2018-11-06T03:16:44.364Z,99.99
2018-11-06T03:17:44.827Z,99.99
2018-11-06T03:18:44.299Z,99.99
2018-11-06T03:19:44.821Z,99.99
2018-11-06T03:20:44.821Z,99.99
2018-11-06T03:21:44.165Z,99.99
2018-11-06T03:22:44.889Z,99.99
2018-11-06T03:23:44.374Z,99.99
2018-11-06T03:24:44.828Z,99.99
2018-11-06T03:25:44.821Z,99.99
2018-11-06T03:26:44.831Z,99.99
2018-11-06T03:27:44.028Z,99.99
2018-11-06T03:28:43.949Z,99.99
2018-11-06T03:29:44.823Z,99.99
2018-11-06T03:30:43.945Z,99.99
2018-11-06T03:31:43.858Z,99.99
2018-11-06T03:32:46.820Z,99.99
2018-11-06T03:33:43.793Z,99.99
2018-11-06T03:34:43.769Z,99.99
2018-11-06T03:35:43.883Z,99.99
2018-11-06T03:36:44.325Z,99.99
2018-11-06T03:37:43.741Z,99.99
2018-11-06T03:38:44.330Z,99.99
2018-11-06T03:39:43.621Z,99.99
2018-11-06T03:40:43.622Z,99.99
2018-11-06T03:41:44.328Z,99.99
2018-11-06T03:42:43.540Z,99.99
2018-11-06T03:43:44.326Z,99.99
2018-11-06T03:44:43.468Z,99.99
2018-11-06T03:45:43.520Z,99.99
2018-11-06T03:46:44.328Z,99.99
2018-11-06T03:47:43.371Z,99.99
2018-11-06T03:48:43.344Z,99.99
2018-11-06T03:49:43.830Z,99.99
2018-11-06T03:50:43.381Z,99.99
2018-11-06T03:51:43.388Z,99.99
2018-11-06T03:52:43.830Z,99.99
2018-11-06T03:53:43.196Z,99.99
2018-11-06T03:54:43.833Z,99.99
2018-11-06T03:55:43.128Z,99.99
2018-11-06T03:56:43.385Z,99.99
2018-11-06T03:57:43.833Z,99.99
2018-11-06T03:58:43.041Z,99.99
2018-11-06T03:59:43.008Z,99.99
2018-11-06T04:00:43.826Z,99.99
2018-11-06T04:01:43.384Z,99.99
2018-11-06T04:02:43.828Z,99.99
2018-11-06T04:03:43.832Z,99.99
2018-11-06T04:04:43.385Z,99.99
2018-11-06T04:05:42.858Z,99.99
2018-11-06T04:06:42.839Z,99.99
2018-11-06T04:07:43.329Z,99.99
2018-11-06T04:08:42.731Z,99.99
2018-11-06T04:09:42.741Z,99.99
2018-11-06T04:10:42.667Z,99.99
2018-11-06T04:11:43.332Z,99.99
2018-11-06T04:12:42.885Z,99.99
2018-11-06T04:13:43.327Z,99.99
2018-11-06T04:14:43.334Z,99.99
2018-11-06T04:15:42.882Z,99.99
2018-11-06T04:16:43.334Z,99.99
2018-11-06T04:17:42.453Z,99.99
2018-11-06T04:18:43.331Z,99.99
2018-11-06T04:19:42.919Z,99.99
2018-11-06T04:20:42.902Z,99.99
2018-11-06T04:21:42.330Z,99.99
2018-11-06T04:22:42.309Z,99.99
2018-11-06T04:23:42.267Z,99.99
2018-11-06T04:24:42.835Z,99.99
2018-11-06T04:25:42.257Z,99.99
2018-11-06T04:26:42.828Z,99.99
2018-11-06T04:27:42.192Z,99.99
2018-11-06T04:28:42.127Z,99.99
2018-11-06T04:29:42.833Z,99.99
2018-11-06T04:30:42.831Z,99.99
2018-11-06T04:31:42.831Z,99.99
2018-11-06T04:32:42.391Z,99.99
2018-11-06T04:33:41.973Z,99.99
2018-11-06T04:34:41.933Z,99.99
2018-11-06T04:35:41.899Z,99.99
2018-11-06T04:36:42.833Z,99.99
2018-11-06T04:37:41.907Z,99.99
2018-11-06T04:38:41.816Z,99.99
2018-11-06T04:39:41.780Z,99.99
2018-11-06T04:40:42.338Z,99.99
2018-11-06T04:41:41.726Z,99.99
2018-11-06T04:42:41.747Z,99.99
2018-11-06T04:43:41.660Z,99.99
2018-11-06T04:44:41.636Z,99.99
2018-11-06T04:45:41.599Z,99.99
2018-11-06T04:46:42.334Z,99.99
2018-11-06T04:47:41.891Z,99.99
2018-11-06T04:48:41.761Z,99.99
2018-11-06T04:49:42.343Z,99.99
2018-11-06T04:50:42.355Z,99.99
2018-11-06T04:51:42.345Z,99.99
2018-11-06T04:52:42.492Z,99.99
2018-11-06T04:53:41.888Z,99.99
2018-11-06T04:54:41.836Z,99.99
2018-11-06T04:55:41.837Z,99.99
2018-11-06T04:56:41.254Z,99.99
2018-11-06T04:57:41.240Z,99.99
2018-11-06T04:58:41.261Z,99.99
2018-11-06T04:59:41.168Z,99.99
2018-11-06T05:00:41.180Z,99.99
2018-11-06T05:01:41.839Z,99.99
2018-11-06T05:02:41.839Z,99.99
2018-11-06T05:03:41.085Z,99.99
2018-11-06T05:04:41.395Z,99.99
2018-11-06T05:05:41.397Z,99.99
2018-11-06T05:06:41.855Z,99.99
2018-11-06T05:07:41.843Z,99.99
2018-11-06T05:08:40.896Z,99.99
2018-11-06T05:09:41.388Z,99.99
2018-11-06T05:10:41.043Z,99.99
2018-11-06T05:11:40.797Z,99.99
2018-11-06T05:12:41.342Z,99.99
2018-11-06T05:13:40.732Z,99.99
2018-11-06T05:14:40.915Z,99.99
2018-11-06T05:15:41.340Z,99.99
2018-11-06T05:16:40.648Z,99.99
2018-11-06T05:17:40.622Z,99.99
2018-11-06T05:18:40.580Z,99.99
2018-11-06T05:19:40.611Z,99.99
2018-11-06T05:20:40.908Z,99.99
2018-11-06T05:21:41.343Z,99.99
2018-11-06T05:22:41.343Z,99.99
2018-11-06T05:23:40.458Z,99.99
2018-11-06T05:24:40.400Z,99.99
2018-11-06T05:25:40.493Z,99.99
2018-11-06T05:26:40.840Z,99.99
2018-11-06T05:27:40.307Z,99.99
2018-11-06T05:28:40.275Z,99.99
2018-11-06T05:29:40.243Z,99.99
2018-11-06T05:30:40.253Z,99.99
2018-11-06T05:31:40.396Z,99.99
2018-11-06T05:32:40.218Z,99.99
2018-11-06T05:33:40.860Z,99.99
2018-11-06T05:34:41.769Z,99.99
2018-11-06T05:35:40.850Z,99.99
2018-11-06T05:36:40.081Z,99.99
2018-11-06T05:37:39.995Z,99.99
2018-11-06T05:38:39.965Z,99.99
2018-11-06T05:39:40.918Z,99.99
2018-11-06T05:40:40.842Z,99.99
2018-11-06T05:41:40.389Z,99.99
2018-11-06T05:42:39.844Z,99.99
2018-11-06T05:43:39.871Z,99.99
2018-11-06T05:44:40.345Z,99.99
2018-11-06T05:45:40.408Z,99.99
2018-11-06T05:46:39.761Z,99.99
2018-11-06T05:47:40.340Z,99.99
2018-11-06T05:48:40.341Z,99.99
2018-11-06T05:49:39.624Z,99.99
2018-11-06T05:50:40.344Z,99.99
2018-11-06T05:51:39.899Z,99.99
2018-11-06T05:52:40.357Z,99.99
2018-11-06T05:53:39.896Z,99.99
2018-11-06T05:54:39.471Z,99.99
2018-11-06T05:55:42.343Z,99.99
2018-11-06T05:56:40.344Z,99.99
2018-11-06T05:57:39.379Z,99.99
2018-11-06T05:58:39.393Z,99.99
2018-11-06T05:59:39.323Z,99.99
2018-11-06T06:00:39.318Z,99.99
2018-11-06T06:01:39.850Z,99.99
2018-11-06T06:02:41.847Z,99.99
2018-11-06T06:03:39.397Z,99.99
2018-11-06T06:04:39.847Z,99.99
2018-11-06T06:05:39.130Z,99.99
2018-11-06T06:06:39.843Z,99.99
2018-11-06T06:07:39.071Z,99.99
2018-11-06T06:08:39.407Z,99.99
2018-11-06T06:09:39.754Z,99.99
2018-11-06T06:10:39.852Z,99.99
2018-11-06T06:11:39.846Z,99.99
2018-11-06T06:12:38.917Z,99.99
2018-11-06T06:13:38.927Z,99.99
2018-11-06T06:14:38.858Z,99.99
2018-11-06T06:15:38.831Z,99.99
2018-11-06T06:16:38.832Z,99.99
2018-11-06T06:17:38.762Z,99.99
2018-11-06T06:18:38.966Z,99.99
2018-11-06T06:19:39.346Z,99.99
2018-11-06T06:20:39.349Z,99.99
2018-11-06T06:21:39.352Z,99.99
2018-11-06T06:22:39.396Z,99.99
2018-11-06T06:23:38.618Z,99.99
2018-11-06T06:24:38.904Z,99.99
2018-11-06T06:25:39.351Z,99.99
2018-11-06T06:26:39.349Z,99.99
2018-11-06T06:27:38.451Z,99.99
2018-11-06T06:28:38.547Z,99.99
2018-11-06T06:29:39.403Z,99.99
2018-11-06T06:30:39.355Z,99.99
2018-11-06T06:31:38.333Z,99.99
2018-11-06T06:32:38.850Z,99.99
2018-11-06T06:33:38.266Z,99.99
2018-11-06T06:34:38.506Z,99.99
2018-11-06T06:35:38.886Z,99.99
2018-11-06T06:36:38.849Z,99.99
2018-11-06T06:37:38.149Z,99.99
2018-11-06T06:38:38.856Z,99.99
2018-11-06T06:39:38.127Z,99.99
2018-11-06T06:40:38.409Z,99.99
2018-11-06T06:41:38.855Z,99.99
2018-11-06T06:42:37.987Z,99.99
2018-11-06T06:43:40.849Z,99.99
2018-11-06T06:44:37.924Z,99.99
2018-11-06T06:45:37.939Z,99.99
2018-11-06T06:46:38.853Z,99.99
2018-11-06T06:47:37.829Z,99.99
2018-11-06T06:48:38.350Z,99.99
2018-11-06T06:49:38.353Z,99.99
2018-11-06T06:50:37.940Z,99.99
2018-11-06T06:51:37.705Z,99.99
2018-11-06T06:52:37.679Z,99.99
2018-11-06T06:53:38.354Z,99.99
2018-11-06T06:54:38.569Z,99.99
2018-11-06T06:55:37.627Z,99.99
2018-11-06T06:56:37.556Z,99.99
2018-11-06T06:57:37.524Z,99.99
2018-11-06T06:58:37.495Z,99.99
2018-11-06T06:59:37.458Z,99.99
2018-11-06T07:00:37.476Z,99.99
2018-11-06T07:01:37.395Z,99.99
2018-11-06T07:02:37.439Z,99.99
2018-11-06T07:03:37.363Z,99.99
2018-11-06T07:04:37.309Z,99.99
2018-11-06T07:05:37.318Z,99.99
2018-11-06T07:06:37.291Z,99.99
2018-11-06T07:07:37.215Z,99.99
2018-11-06T07:08:37.236Z,99.99
2018-11-06T07:09:37.169Z,99.99
2018-11-06T07:10:37.123Z,99.99
2018-11-06T07:11:37.093Z,99.99
2018-11-06T07:12:37.084Z,99.99
2018-11-06T07:13:37.074Z,99.99
2018-11-06T07:14:37.004Z,99.99
2018-11-06T07:15:38.760Z,99.99
2018-11-06T07:16:36.943Z,99.99
2018-11-06T07:17:36.908Z,99.99
2018-11-06T07:18:37.008Z,99.99
2018-11-06T07:19:37.389Z,99.99
2018-11-06T07:20:36.815Z,99.99
2018-11-06T07:21:36.785Z,99.99
2018-11-06T07:22:36.752Z,99.99
2018-11-06T07:23:36.799Z,99.99
2018-11-06T07:24:36.695Z,99.99
2018-11-06T07:25:36.660Z,99.99
2018-11-06T07:26:36.653Z,99.99
2018-11-06T07:27:36.605Z,99.99
2018-11-06T07:28:36.685Z,99.99
2018-11-06T07:29:36.588Z,99.99
2018-11-06T07:30:36.525Z,99.99
2018-11-06T07:31:36.496Z,99.99
2018-11-06T07:32:36.450Z,99.99
2018-11-06T07:33:36.458Z,99.99
2018-11-06T07:34:36.523Z,99.99
2018-11-06T07:35:36.538Z,99.99
2018-11-06T07:36:36.329Z,99.99
2018-11-06T07:37:36.297Z,99.99
2018-11-06T07:38:36.273Z,99.99
2018-11-06T07:39:36.293Z,99.99
2018-11-06T07:40:36.272Z,99.99
2018-11-06T07:41:36.184Z,99.99
2018-11-06T07:42:36.151Z,99.99
2018-11-06T07:43:36.117Z,99.99
2018-11-06T07:44:36.134Z,99.99
2018-11-06T07:45:36.058Z,99.99
2018-11-06T07:46:36.031Z,99.99
2018-11-06T07:47:36.008Z,99.99
2018-11-06T07:48:36.017Z,99.99
2018-11-06T07:49:35.935Z,99.99
2018-11-06T07:50:35.953Z,99.99
2018-11-06T07:51:35.875Z,99.99
2018-11-06T07:52:35.861Z,99.99
2018-11-06T07:53:35.834Z,99.99
2018-11-06T07:54:35.800Z,99.99
2018-11-06T07:55:35.819Z,99.99
2018-11-06T07:56:35.728Z,99.99
2018-11-06T07:57:35.698Z,99.99
2018-11-06T07:58:35.674Z,99.99
2018-11-06T07:59:35.637Z,99.99
2018-11-06T08:00:35.661Z,99.99
2018-11-06T08:01:35.577Z,99.99
2018-11-06T08:02:35.557Z,99.99
2018-11-06T08:03:35.520Z,99.99
2018-11-06T08:04:35.491Z,99.99
2018-11-06T08:05:35.513Z,99.99
2018-11-06T08:06:35.475Z,99.99
2018-11-06T08:07:35.400Z,99.99
2018-11-06T08:08:35.381Z,99.99
2018-11-06T08:09:35.411Z,99.99
2018-11-06T08:10:35.362Z,99.99
2018-11-06T08:11:35.279Z,99.99
2018-11-06T08:12:35.252Z,99.99
2018-11-06T08:13:35.221Z,99.99
2018-11-06T08:14:35.300Z,99.99
2018-11-06T08:15:35.207Z,99.99
2018-11-06T08:16:35.139Z,99.99
2018-11-06T08:17:35.104Z,99.99
2018-11-06T08:18:35.074Z,99.99
2018-11-06T08:19:35.047Z,99.99
2018-11-06T08:20:35.074Z,99.99
2018-11-06T08:21:34.989Z,99.99
2018-11-06T08:22:34.966Z,99.99
2018-11-06T08:23:34.943Z,99.99
2018-11-06T08:24:34.903Z,99.99
2018-11-06T08:25:34.920Z,99.99
2018-11-06T08:26:34.907Z,99.99
2018-11-06T08:27:34.875Z,99.99
2018-11-06T08:28:34.829Z,99.99
2018-11-06T08:29:34.754Z,99.99
2018-11-06T08:30:34.759Z,99.99
2018-11-06T08:31:35.179Z,99.99
2018-11-06T08:32:35.145Z,99.99
2018-11-06T08:33:34.757Z,99.99
2018-11-06T08:34:34.612Z,99.99
2018-11-06T08:35:34.580Z,99.99
2018-11-06T08:36:34.582Z,99.99
2018-11-06T08:37:34.522Z,99.99
2018-11-06T08:38:34.539Z,99.99
2018-11-06T08:39:34.465Z,99.99
2018-11-06T08:40:34.486Z,99.99
2018-11-06T08:41:34.407Z,99.99
2018-11-06T08:42:34.507Z,99.99
2018-11-06T08:43:34.347Z,99.99
2018-11-06T08:44:34.362Z,99.99
2018-11-06T08:45:34.335Z,99.99
2018-11-06T08:46:34.265Z,99.99
2018-11-06T08:47:34.282Z,99.99
2018-11-06T08:48:34.204Z,99.99
2018-11-06T08:49:34.176Z,99.99
2018-11-06T08:50:34.227Z,99.99
2018-11-06T08:51:34.125Z,99.99
2018-11-06T08:52:34.092Z,99.99
2018-11-06T08:53:34.060Z,99.99
2018-11-06T08:54:34.910Z,99.99
2018-11-06T08:55:34.054Z,99.99
2018-11-06T08:56:33.974Z,99.99
2018-11-06T08:57:33.964Z,99.99
2018-11-06T08:58:33.918Z,99.99
2018-11-06T08:59:33.893Z,99.99
2018-11-06T09:00:33.905Z,99.99
2018-11-06T09:01:33.833Z,99.99
2018-11-06T09:02:33.854Z,99.99
2018-11-06T09:03:33.775Z,99.99
2018-11-06T09:04:33.746Z,99.99
2018-11-06T09:05:33.778Z,99.99
2018-11-06T09:06:34.412Z,99.99
2018-11-06T09:07:33.669Z,99.99
2018-11-06T09:08:33.645Z,99.99
2018-11-06T09:09:33.604Z,99.99
2018-11-06T09:10:33.623Z,99.99
2018-11-06T09:11:33.596Z,99.99
2018-11-06T09:12:33.549Z,99.99
2018-11-06T09:13:33.495Z,99.99
2018-11-06T09:14:33.487Z,99.99
2018-11-06T09:15:33.479Z,99.99
2018-11-06T09:16:33.413Z,99.99
2018-11-06T09:17:33.380Z,99.99
2018-11-06T09:18:33.349Z,99.99
2018-11-06T09:19:33.334Z,99.99
2018-11-06T09:20:33.348Z,99.99
2018-11-06T09:21:33.269Z,99.99
2018-11-06T09:22:33.249Z,99.99
2018-11-06T09:23:33.210Z,99.99
2018-11-06T09:24:33.187Z,99.99
2018-11-06T09:25:33.193Z,99.99
2018-11-06T09:26:33.173Z,99.99
2018-11-06T09:27:33.104Z,99.99
2018-11-06T09:28:33.075Z,99.99
2018-11-06T09:29:33.189Z,99.99
2018-11-06T09:30:33.028Z,99.99
2018-11-06T09:31:33.034Z,99.99
2018-11-06T09:32:32.960Z,99.99
2018-11-06T09:33:32.937Z,99.99
2018-11-06T09:34:32.900Z,99.99
2018-11-06T09:35:32.877Z,99.99
2018-11-06T09:36:32.896Z,99.99
2018-11-06T09:37:32.847Z,99.99
2018-11-06T09:38:32.796Z,99.99
2018-11-06T09:39:32.764Z,99.99
2018-11-06T09:40:32.737Z,99.99
2018-11-06T09:41:32.825Z,99.99
2018-11-06T09:42:32.681Z,99.99
2018-11-06T09:43:32.712Z,99.99
2018-11-06T09:45:32.650Z,99.99
2018-11-06T09:46:32.613Z,99.99
2018-11-06T09:47:32.546Z,99.99
2018-11-06T09:48:32.604Z,99.99
2018-11-06T09:49:32.518Z,99.99
2018-11-06T09:50:32.483Z,99.99
2018-11-06T09:51:32.947Z,99.99
2018-11-06T09:52:32.405Z,99.99
2018-11-06T09:53:32.376Z,99.99
2018-11-06T09:54:32.391Z,99.99
2018-11-06T09:55:32.334Z,99.99
2018-11-06T09:56:32.316Z,99.99
2018-11-06T09:57:32.264Z,99.99
2018-11-06T09:58:32.288Z,99.99
2018-11-06T09:59:32.213Z,99.99
2018-11-06T10:00:32.184Z,99.99
2018-11-06T10:01:32.156Z,99.99
2018-11-06T10:02:32.173Z,99.99
2018-11-06T10:03:32.133Z,99.99
2018-11-06T10:04:32.083Z,99.99
2018-11-06T10:05:32.049Z,99.99
2018-11-06T10:06:32.194Z,99.99
2018-11-06T10:07:32.094Z,99.99
2018-11-06T10:08:31.974Z,99.99
2018-11-06T10:09:31.943Z,99.99
2018-11-06T10:10:31.929Z,99.99
2018-11-06T10:11:31.920Z,99.99
2018-11-06T10:12:31.909Z,99.99
2018-11-06T10:13:31.920Z,99.99
2018-11-06T10:14:31.804Z,99.99
2018-11-06T10:15:31.818Z,99.99
2018-11-06T10:16:31.756Z,99.99
2018-11-06T10:17:31.781Z,99.99
2018-11-06T10:18:31.701Z,99.99
2018-11-06T10:19:31.684Z,99.99
2018-11-06T10:20:31.647Z,99.99
2018-11-06T10:21:31.621Z,99.99
2018-11-06T10:22:31.769Z,99.99
2018-11-06T10:23:31.579Z,99.99
2018-11-06T10:24:31.539Z,99.99
2018-11-06T10:25:31.509Z,99.99
2018-11-06T10:26:31.492Z,99.99
2018-11-06T10:27:31.505Z,99.99
2018-11-06T10:28:31.473Z,99.99
2018-11-06T10:29:31.402Z,99.99
2018-11-06T10:30:31.373Z,99.99
2018-11-06T10:31:31.344Z,99.99
2018-11-06T10:32:31.318Z,99.67
2018-11-06T10:33:31.339Z,99.76
2018-11-06T10:34:31.315Z,99.29
2018-11-06T10:35:31.479Z,98.90
2018-11-06T10:36:31.219Z,98.90
2018-11-06T10:37:31.190Z,99.29
2018-11-06T10:38:31.157Z,99.48
2018-11-06T10:39:31.179Z,98.47
2018-11-06T10:40:31.449Z,98.33
2018-11-06T10:41:31.077Z,97.56
2018-11-06T10:42:31.056Z,97.90
2018-11-06T10:43:31.027Z,97.61
2018-11-06T10:44:31.062Z,97.52
2018-11-06T10:45:30.974Z,98.00
2018-11-06T10:46:30.943Z,97.80
2018-11-06T10:47:30.927Z,97.52
2018-11-06T10:48:30.896Z,96.84
2018-11-06T10:49:30.923Z,96.66
2018-11-06T10:50:30.836Z,97.13
2018-11-06T10:51:30.832Z,97.33
2018-11-06T10:52:30.785Z,97.90
2018-11-06T10:53:30.772Z,97.52
2018-11-06T10:54:30.786Z,97.61
2018-11-06T10:55:30.704Z,97.04
2018-11-06T10:56:30.747Z,97.23
2018-11-06T10:57:30.654Z,96.75
2018-11-06T10:58:30.634Z,97.33
2018-11-06T10:59:30.599Z,96.94
2018-11-06T11:00:30.630Z,96.94
2018-11-06T11:01:30.602Z,96.75
2018-11-06T11:02:30.524Z,95.79
2018-11-06T11:03:30.517Z,95.65
2018-11-06T11:04:30.470Z,94.79
2018-11-06T11:05:30.444Z,94.74
2018-11-06T11:06:30.486Z,94.69
2018-11-06T11:07:30.389Z,94.98
2018-11-06T11:08:30.898Z,95.07
2018-11-06T11:09:30.333Z,95.65
2018-11-06T11:10:30.317Z,94.89
2018-11-06T11:11:30.329Z,94.40
2018-11-06T11:12:30.904Z,94.79
2018-11-06T11:13:30.311Z,94.40
2018-11-06T11:14:30.210Z,94.40
2018-11-06T11:15:30.175Z,94.60
2018-11-06T11:16:30.196Z,94.02
2018-11-06T11:17:30.127Z,94.40
2018-11-06T11:18:30.098Z,94.31
2018-11-06T11:19:30.079Z,93.74
2018-11-06T11:20:30.045Z,93.93
2018-11-06T11:21:30.080Z,94.31
2018-11-06T11:22:30.003Z,94.40
2018-11-06T11:23:29.967Z,93.54
2018-11-06T11:24:29.942Z,93.54
2018-11-06T11:25:29.945Z,92.97
2018-11-06T11:26:29.990Z,93.30
2018-11-06T11:27:29.863Z,93.45
2018-11-06T11:28:29.836Z,92.73
2018-11-06T11:29:29.810Z,92.92
2018-11-06T11:30:29.810Z,92.54
2018-11-06T11:31:29.819Z,92.54
2018-11-06T11:32:29.786Z,92.35
2018-11-06T11:33:29.755Z,91.96
2018-11-06T11:34:29.678Z,92.15
2018-11-06T11:35:29.678Z,91.58
2018-11-06T11:36:29.631Z,91.67
2018-11-06T11:37:29.621Z,92.15
2018-11-06T11:38:29.633Z,92.25
2018-11-06T11:39:29.548Z,91.77
2018-11-06T11:40:29.563Z,92.06
2018-11-06T11:41:29.502Z,91.58
2018-11-06T11:42:29.543Z,91.19
2018-11-06T11:43:29.454Z,91.10
2018-11-06T11:44:29.420Z,91.10
2018-11-06T11:45:29.394Z,91.49
2018-11-06T11:46:29.368Z,90.62
2018-11-06T11:47:29.401Z,90.81
2018-11-06T11:48:29.317Z,90.81
2018-11-06T11:49:29.293Z,90.72
2018-11-06T11:50:29.278Z,90.62
2018-11-06T11:51:29.279Z,90.05
2018-11-06T11:52:29.280Z,90.62
2018-11-06T11:53:29.187Z,90.53
2018-11-06T11:54:29.908Z,89.86
2018-11-06T11:55:29.170Z,89.95
2018-11-06T11:56:29.110Z,89.86
2018-11-06T11:57:29.133Z,89.47
2018-11-06T11:58:29.062Z,89.37
2018-11-06T11:59:29.035Z,89.09
2018-11-06T12:00:29.137Z,89.18
2018-11-06T12:01:28.984Z,88.42
2018-11-06T12:02:28.964Z,88.80
2018-11-06T12:03:28.940Z,88.61
2018-11-06T12:04:28.905Z,88.51
2018-11-06T12:05:29.827Z,88.32
2018-11-06T12:06:28.869Z,88.37
2018-11-06T12:07:28.829Z,88.37
2018-11-06T12:08:28.803Z,88.27
2018-11-06T12:09:28.776Z,88.75
2018-11-06T12:10:29.316Z,88.90
2018-11-06T12:11:28.769Z,88.65
2018-11-06T12:12:28.701Z,88.75
2018-11-06T12:13:28.735Z,88.65
2018-11-06T12:14:28.663Z,88.94
2018-11-06T12:15:28.628Z,88.84
2018-11-06T12:16:28.600Z,88.37
2018-11-06T12:17:28.643Z,88.46
2018-11-06T12:18:28.609Z,88.37
2018-11-06T12:19:28.518Z,88.37
2018-11-06T12:20:28.495Z,87.79
2018-11-06T12:21:28.482Z,87.50
2018-11-06T12:22:28.443Z,87.21
2018-11-06T12:23:28.514Z,87.60
2018-11-06T12:24:28.404Z,87.98
2018-11-06T12:25:28.517Z,86.93
2018-11-06T12:26:29.325Z,87.21
2018-11-06T12:27:28.318Z,86.64
2018-11-06T12:28:28.555Z,86.54
2018-11-06T12:29:28.320Z,87.21
2018-11-06T12:30:28.250Z,87.50
2018-11-06T12:31:28.215Z,87.02
2018-11-06T12:32:28.250Z,86.54
2018-11-06T12:33:28.164Z,86.64
2018-11-06T12:34:28.186Z,86.74
2018-11-06T12:35:28.114Z,86.78
2018-11-06T12:36:28.191Z,86.45
2018-11-06T12:37:28.101Z,86.35
2018-11-06T12:38:28.066Z,85.58
2018-11-06T12:39:28.046Z,85.68
2018-11-06T12:40:28.071Z,85.63
2018-11-06T12:41:28.009Z,85.21
2018-11-06T12:42:27.938Z,84.95
2018-11-06T12:43:27.971Z,84.77
2018-11-06T12:44:27.886Z,84.67
2018-11-06T12:45:27.925Z,85.15
2018-11-06T12:46:27.838Z,85.44
2018-11-06T12:47:27.809Z,84.67
2018-11-06T12:48:27.789Z,85.44
2018-11-06T12:49:27.921Z,85.25
2018-11-06T12:50:27.847Z,84.67
2018-11-06T12:51:27.730Z,84.77
2018-11-06T12:52:27.688Z,85.34
2018-11-06T12:53:27.661Z,85.53